Terminal Aerodrome Forecast
Issued by NWS Twin Cities, MN

Home | Current Version | Previous Version | Graphics & Text | Print | Product List | Glossary On
Versions: 1 2 3 4 5 6 7 8 9 10 11 12 13 14 15
000
FTUS43 KMPX 222320
TAFSTC
TAF
KSTC 222320Z 2300/2324 27006KT P6SM BKN120
     FM230400 28004KT P6SM FEW200
     FM231200 30012KT P6SM BKN050
     FM231400 31015G24KT P6SM BKN025 OVC050=

USA.gov is the U.S. government's official web portal to all federal, state and local government web resources and services.